• Join FlightAware (Why Join?)
  • Login
  • US Flag 
09:46AM EDT


 

Airport Tracker/Info


-or-


 

Live Flight TrackerFlight Track Log ✈ AWE3921 ✈ 06-Apr-2013 ✈ KDCA - KCAE

Flight Track Log - Related Links

Times and Time Zones

All times are in EDT time to prevent confusion due to time zone crossing. See the AWE3921 flight status page for this flight to view local times or setup timezone preferences in your user account.

Time Position Orientation Groundspeed Altitude Reporting Facility
EDT Latitude Longitude Course Direction KTS MPH feet Rate Location/Type
02:09PM 38.6135 -77.2512 215° Southwest  Level Estimated
02:10PM 38.5340 -77.3221 215° Southwest  Level Estimated
02:11PM 38.4544 -77.3927 215° Southwest  Level Estimated
02:12PM 38.3747 -77.4633 215° Southwest  Level Estimated
02:13PM 38.2950 -77.5337 215° Southwest  Level Estimated
02:14PM 38.2153 -77.6039 215° Southwest  Level Estimated
02:15PM 38.1356 -77.6740 215° Southwest  Level Estimated
02:16PM 38.0558 -77.7439 215° Southwest  Level Estimated
02:17PM 37.9759 -77.8137 215° Southwest  Level Estimated
02:18PM 37.8960 -77.8833 215° Southwest  Level Estimated
02:19PM 37.8161 -77.9527 214° Southwest  Level Estimated
02:20PM 37.7361 -78.0221 214° Southwest  Level Estimated
02:21PM 37.6561 -78.0912 214° Southwest  Level Estimated
02:22PM 37.5760 -78.1602 214° Southwest  Level Estimated
02:23PM 37.4960 -78.2291 214° Southwest  Level Estimated
02:24PM 37.4158 -78.2978 214° Southwest  Level Estimated
02:25PM 37.3357 -78.3664 214° Southwest  Level Estimated
02:26PM 37.2555 -78.4348 214° Southwest  Level Estimated
02:27PM 37.1752 -78.5031 214° Southwest  Level Estimated
02:28PM 37.0949 -78.5713 214° Southwest  Level Estimated
02:29PM 37.0146 -78.6393 214° Southwest  Level Estimated
02:30PM 36.9342 -78.7071 214° Southwest  Level Estimated
02:31PM 36.8538 -78.7748 214° Southwest  Level Estimated
02:32PM 36.7734 -78.8424 214° Southwest  Level Estimated
02:33PM 36.6929 -78.9098 214° Southwest  Level Estimated
02:34PM 36.6124 -78.9771 214° Southwest  Level Estimated
02:35PM 36.5318 -79.0442 214° Southwest  Level Estimated
02:36PM 36.4512 -79.1112 214° Southwest  Level Estimated
02:37PM 36.3706 -79.1781 214° Southwest  Level Estimated
02:38PM 36.2899 -79.2448 214° Southwest  Level Estimated
02:39PM 36.2092 -79.3114 214° Southwest  Level Estimated
02:40PM 36.1285 -79.3778 214° Southwest  Level Estimated
02:41PM 36.0477 -79.4442 214° Southwest  Level Estimated
02:42PM 35.9669 -79.5103 214° Southwest  Level Estimated
02:43PM 35.8860 -79.5764 214° Southwest  Level Estimated
02:44PM 35.8051 -79.6423 213° Southwest  Level Estimated
02:45PM 35.7242 -79.7081 213° Southwest  Level Estimated
02:46PM 35.6433 -79.7737 213° Southwest  Level Estimated
02:47PM 35.5623 -79.8392 213° Southwest  Level Estimated
02:48PM 35.4813 -79.9046 213° Southwest  Level Estimated
02:49PM 35.4002 -79.9698 213° Southwest  Level Estimated
02:50PM 35.3191 -80.0349 213° Southwest  Level Estimated
02:51PM 35.2380 -80.0999 213° Southwest  Level Estimated
02:52PM 35.1568 -80.1647 213° Southwest  Level Estimated
02:53PM 35.0756 -80.2295 213° Southwest  Level Estimated
02:54PM 34.9944 -80.2941 213° Southwest  Level Estimated
02:55PM 34.9131 -80.3585 213° Southwest  Level Estimated
02:56PM 34.8318 -80.4229 213° Southwest  Level Estimated
02:57PM 34.7504 -80.4871 213° Southwest  Level Estimated
02:58PM 34.6691 -80.5511 213° Southwest  Level Estimated
02:59PM 34.5877 -80.6151 213° Southwest  Level Estimated
03:00PM 34.5062 -80.6789 213° Southwest  Level Estimated
03:01PM 34.4247 -80.7427 213° Southwest  Level Estimated
03:02PM 34.3419 -80.8073 213° Southwest  Level Estimated
03:03PM 34.2590 -80.8718 213° Southwest  Level Estimated
03:04PM 34.1760 -80.9362 213° Southwest  Level Estimated
03:05PM 34.0931 -81.0005 213° Southwest  Level Estimated
03:06PM 34.0101 -81.0646 213° Southwest  Level Estimated
03:07PM 33.9388 -81.1195 213° Southwest  Level Estimated
03:08PM 33.9388 -81.1195 29° Northeast  Level Estimated
03:09PM 33.9388 -81.1195 29° Northeast  Level Estimated
03:10PM 33.9388 -81.1195 29° Northeast  Level Estimated
03:11PM 33.9388 -81.1195 29° Northeast  Level Estimated
03:12PM 33.9388 -81.1195 29° Northeast  Level Estimated
03:13PM 33.9388 -81.1195 29° Northeast  Level Estimated